Hikarimaru No.17 — JD2956 — position and weather

sailwx.info

Track history (hours):
 
Tides and Currents Weather Stations Pressure Air Temp Water Temp Dewpoint Dewpoint Depression Visibility Wind Speed Wind Dir Waves Ship Positions

Hikarimaru No.17

Last reported at 2014-Sep-30 15:32 UTC. Time now 2014-Sep-30 15:56 UTC.
Position N 34°10' E 135°09'.

Length 105 m; draft 5.5 m.

Type: Tanker. MMSI: 431000984.

Date/timePositionNaut miles runAvg speedWind from/ knotsBaromVisibWave heightAir tempDewpointWater temp
2014-Sep-30 15:32N 34°10' E 135°09'0 0.0
2014-Sep-30 14:32N 34°10' E 135°09'0 0.0
2014-Sep-30 13:17N 34°10' E 135°09'0 0.0
2014-Sep-30 12:29N 34°10' E 135°09'0 0.0
2014-Sep-30 11:32N 34°10' E 135°09'0 0.0
2014-Sep-30 10:32N 34°10' E 135°09'0 0.0
2014-Sep-30 09:32N 34°10' E 135°09'0 0.0
2014-Sep-30 08:32N 34°10' E 135°09'0 0.0
2014-Sep-30 07:29N 34°10' E 135°09'0 0.1
2014-Sep-30 06:32N 34°10' E 135°09'0 0.0
2014-Sep-30 05:29N 34°10' E 135°09'5 5.3
2014-Sep-30 04:33N 34°07' E 135°03'4 0.5
2014-Sep-29 21:29N 34°03' E 135°03'7 7.2
2014-Sep-29 20:31N 34°09' E 135°08'0 0.0
2014-Sep-29 19:28N 34°09' E 135°08'0 0.0
2014-Sep-29 18:22N 34°09' E 135°08'0 0.0
2014-Sep-29 17:28N 34°09' E 135°08'0 0.0
2014-Sep-29 16:31N 34°09' E 135°08'0 0.0
2014-Sep-29 15:31N 34°09' E 135°08'0 0.0
2014-Sep-29 14:31N 34°09' E 135°08'0 0.0
2014-Sep-29 13:31N 34°09' E 135°08'0 0.0
2014-Sep-29 12:31N 34°09' E 135°08'0 0.0
2014-Sep-29 10:31N 34°09' E 135°08'0 0.0
2014-Sep-29 09:31N 34°09' E 135°08'0 0.0
2014-Sep-29 08:31N 34°09' E 135°08'0 0.0
2014-Sep-29 07:31N 34°09' E 135°08'10 9.8
2014-Sep-29 06:31N 34°16' E 134°59'1212.7
2014-Sep-29 05:33N 34°26' E 135°07'1313.4
2014-Sep-29 04:33N 34°33' E 135°21'3 0.7
2014-Sep-28 23:33N 34°33' E 135°25'5 3.7
2014-Sep-28 22:20N 34°32' E 135°20'0 0.0
2014-Sep-28 21:32N 34°32' E 135°20'0 0.0
2014-Sep-28 20:32N 34°32' E 135°20'0 0.0
2014-Sep-28 19:32N 34°32' E 135°20'0 0.0
2014-Sep-28 18:32N 34°32' E 135°20'0 0.0
2014-Sep-28 17:26N 34°32' E 135°20'0 0.1
2014-Sep-28 16:32N 34°32' E 135°20'0 0.0
2014-Sep-28 15:32N 34°32' E 135°20'0 0.0
2014-Sep-28 14:26N 34°32' E 135°20'0 0.0
2014-Sep-28 13:32N 34°32' E 135°20'0 0.0
2014-Sep-28 12:26N 34°32' E 135°20'0 0.0
2014-Sep-28 11:32N 34°32' E 135°20'0 0.0
2014-Sep-28 10:32N 34°32' E 135°20'0 0.0
2014-Sep-28 09:32N 34°32' E 135°20'0 0.0
2014-Sep-28 08:26N 34°32' E 135°20'0 0.0
2014-Sep-28 07:32N 34°32' E 135°20'2 2.5
2014-Sep-28 06:33N 34°33' E 135°17'1313.6
2014-Sep-28 05:33N 34°37' E 135°01'119 4.7
2014-Sep-27 04:20N 34°06' E 132°42'2011.2
2014-Sep-27 02:33N 34°09' E 132°18'5 1.2
2014-Sep-26 22:17N 34°13' E 132°15'0 0.0
2014-Sep-26 21:29N 34°13' E 132°15'0 0.0
2014-Sep-26 20:23N 34°13' E 132°15'0 0.0
2014-Sep-26 19:29N 34°13' E 132°15'0 0.0
2014-Sep-26 18:17N 34°13' E 132°15'0 0.0
2014-Sep-26 17:23N 34°13' E 132°15'0 0.0
2014-Sep-26 16:29N 34°13' E 132°15'0 0.0
2014-Sep-26 15:20N 34°13' E 132°15'0 0.0
2014-Sep-26 09:17N 34°13' E 132°15'7 1.3
2014-Sep-26 03:33N 34°09' E 132°21'2 0.4
2014-Sep-25 22:30N 34°08' E 132°23'10 7.8
2014-Sep-25 21:09N 34°01' E 132°32'6 9.3
2014-Sep-25 20:33N 34°03' E 132°38'11512.2
2014-Sep-25 11:05N 34°35' E 134°52'815.0
2014-Sep-25 10:33N 34°37' E 135°01'1211.7
2014-Sep-25 09:31N 34°25' E 135°02'1111.6
2014-Sep-25 08:33N 34°14' E 135°01'9 1.1
2014-Sep-25 00:12N 34°07' E 135°08'2 3.1
2014-Sep-24 23:29N 34°09' E 135°08'0 0.0
2014-Sep-24 22:32N 34°09' E 135°08'0 0.1
2014-Sep-24 21:23N 34°09' E 135°08'0 0.0
2014-Sep-24 20:32N 34°09' E 135°08'0 0.0
2014-Sep-24 19:32N 34°09' E 135°08'0 0.0
2014-Sep-24 18:29N 34°09' E 135°08'0 0.1
2014-Sep-24 17:32N 34°09' E 135°08'0 0.0
2014-Sep-24 16:32N 34°09' E 135°08'0 0.0
2014-Sep-24 15:32N 34°09' E 135°08'0 0.0
2014-Sep-24 14:32N 34°09' E 135°08'0 0.0
2014-Sep-24 13:32N 34°09' E 135°08'0 0.0
2014-Sep-24 12:32N 34°09' E 135°08'0 0.0
2014-Sep-24 11:33N 34°09' E 135°08'10 9.9
2014-Sep-24 10:33N 34°15' E 134°59'1111.1
2014-Sep-24 09:33N 34°26' E 135°00'1010.5
2014-Sep-24 08:33N 34°37' E 135°01'  
2014-Sep-21 12:31N 34°05' E 132°50'1614.4
2014-Sep-21 11:24N 33°53' E 132°36'  
Track history (hours):
 
Tides and Currents Weather Stations Pressure Air Temp Water Temp Dewpoint Dewpoint Depression Visibility Wind Speed Wind Dir Waves Ship Positions

Hikarimaru No.17

Last reported at 2014-Sep-30 15:32 UTC. Time now 2014-Sep-30 15:56 UTC.
Position N 34°10' E 135°09'.

Length 105 m; draft 5.5 m.

Type: Tanker. MMSI: 431000984.

Date/timePositionNaut miles runAvg speedWind from/ knotsBaromVisibWave heightAir tempDewpointWater temp
2014-Sep-30 15:32N 34°10' E 135°09'0 0.0
2014-Sep-30 14:32N 34°10' E 135°09'0 0.0
2014-Sep-30 13:17N 34°10' E 135°09'0 0.0
2014-Sep-30 12:29N 34°10' E 135°09'0 0.0
2014-Sep-30 11:32N 34°10' E 135°09'0 0.0
2014-Sep-30 10:32N 34°10' E 135°09'0 0.0
2014-Sep-30 09:32N 34°10' E 135°09'0 0.0
2014-Sep-30 08:32N 34°10' E 135°09'0 0.0
2014-Sep-30 07:29N 34°10' E 135°09'0 0.1
2014-Sep-30 06:32N 34°10' E 135°09'0 0.0
2014-Sep-30 05:29N 34°10' E 135°09'5 5.3
2014-Sep-30 04:33N 34°07' E 135°03'4 0.5
2014-Sep-29 21:29N 34°03' E 135°03'7 7.2
2014-Sep-29 20:31N 34°09' E 135°08'0 0.0
2014-Sep-29 19:28N 34°09' E 135°08'0 0.0
2014-Sep-29 18:22N 34°09' E 135°08'0 0.0
2014-Sep-29 17:28N 34°09' E 135°08'0 0.0
2014-Sep-29 16:31N 34°09' E 135°08'0 0.0
2014-Sep-29 15:31N 34°09' E 135°08'0 0.0
2014-Sep-29 14:31N 34°09' E 135°08'0 0.0
2014-Sep-29 13:31N 34°09' E 135°08'0 0.0
2014-Sep-29 12:31N 34°09' E 135°08'0 0.0
2014-Sep-29 10:31N 34°09' E 135°08'0 0.0
2014-Sep-29 09:31N 34°09' E 135°08'0 0.0
2014-Sep-29 08:31N 34°09' E 135°08'0 0.0
2014-Sep-29 07:31N 34°09' E 135°08'10 9.8
2014-Sep-29 06:31N 34°16' E 134°59'1212.7
2014-Sep-29 05:33N 34°26' E 135°07'1313.4
2014-Sep-29 04:33N 34°33' E 135°21'3 0.7
2014-Sep-28 23:33N 34°33' E 135°25'5 3.7
2014-Sep-28 22:20N 34°32' E 135°20'0 0.0
2014-Sep-28 21:32N 34°32' E 135°20'0 0.0
2014-Sep-28 20:32N 34°32' E 135°20'0 0.0
2014-Sep-28 19:32N 34°32' E 135°20'0 0.0
2014-Sep-28 18:32N 34°32' E 135°20'0 0.0
2014-Sep-28 17:26N 34°32' E 135°20'0 0.1
2014-Sep-28 16:32N 34°32' E 135°20'0 0.0
2014-Sep-28 15:32N 34°32' E 135°20'0 0.0
2014-Sep-28 14:26N 34°32' E 135°20'0 0.0
2014-Sep-28 13:32N 34°32' E 135°20'0 0.0
2014-Sep-28 12:26N 34°32' E 135°20'0 0.0
2014-Sep-28 11:32N 34°32' E 135°20'0 0.0
2014-Sep-28 10:32N 34°32' E 135°20'0 0.0
2014-Sep-28 09:32N 34°32' E 135°20'0 0.0
2014-Sep-28 08:26N 34°32' E 135°20'0 0.0
2014-Sep-28 07:32N 34°32' E 135°20'2 2.5
2014-Sep-28 06:33N 34°33' E 135°17'1313.6
2014-Sep-28 05:33N 34°37' E 135°01'119 4.7
2014-Sep-27 04:20N 34°06' E 132°42'2011.2
2014-Sep-27 02:33N 34°09' E 132°18'5 1.2
2014-Sep-26 22:17N 34°13' E 132°15'0 0.0
2014-Sep-26 21:29N 34°13' E 132°15'0 0.0
2014-Sep-26 20:23N 34°13' E 132°15'0 0.0
2014-Sep-26 19:29N 34°13' E 132°15'0 0.0
2014-Sep-26 18:17N 34°13' E 132°15'0 0.0
2014-Sep-26 17:23N 34°13' E 132°15'0 0.0
2014-Sep-26 16:29N 34°13' E 132°15'0 0.0
2014-Sep-26 15:20N 34°13' E 132°15'0 0.0
2014-Sep-26 09:17N 34°13' E 132°15'7 1.3
2014-Sep-26 03:33N 34°09' E 132°21'2 0.4
2014-Sep-25 22:30N 34°08' E 132°23'10 7.8
2014-Sep-25 21:09N 34°01' E 132°32'6 9.3
2014-Sep-25 20:33N 34°03' E 132°38'11512.2
2014-Sep-25 11:05N 34°35' E 134°52'815.0
2014-Sep-25 10:33N 34°37' E 135°01'1211.7
2014-Sep-25 09:31N 34°25' E 135°02'1111.6
2014-Sep-25 08:33N 34°14' E 135°01'9 1.1
2014-Sep-25 00:12N 34°07' E 135°08'2 3.1
2014-Sep-24 23:29N 34°09' E 135°08'0 0.0
2014-Sep-24 22:32N 34°09' E 135°08'0 0.1
2014-Sep-24 21:23N 34°09' E 135°08'0 0.0
2014-Sep-24 20:32N 34°09' E 135°08'0 0.0
2014-Sep-24 19:32N 34°09' E 135°08'0 0.0
2014-Sep-24 18:29N 34°09' E 135°08'0 0.1
2014-Sep-24 17:32N 34°09' E 135°08'0 0.0
2014-Sep-24 16:32N 34°09' E 135°08'0 0.0
2014-Sep-24 15:32N 34°09' E 135°08'0 0.0
2014-Sep-24 14:32N 34°09' E 135°08'0 0.0
2014-Sep-24 13:32N 34°09' E 135°08'0 0.0
2014-Sep-24 12:32N 34°09' E 135°08'0 0.0
2014-Sep-24 11:33N 34°09' E 135°08'10 9.9
2014-Sep-24 10:33N 34°15' E 134°59'1111.1
2014-Sep-24 09:33N 34°26' E 135°00'1010.5
2014-Sep-24 08:33N 34°37' E 135°01'  
2014-Sep-21 12:31N 34°05' E 132°50'1614.4
2014-Sep-21 11:24N 33°53' E 132°36'  

Dump ship's entire track history